createdAt,value
2022-09-15T00:00:57.814Z,5.60
2022-09-15T00:03:25.358Z,6.00
2022-09-15T00:05:52.944Z,5.60
2022-09-15T00:08:20.456Z,5.57
2022-09-15T00:10:47.991Z,6.35
2022-09-15T00:13:16.333Z,5.60
2022-09-15T00:15:43.868Z,5.33
2022-09-15T00:18:11.412Z,6.00
2022-09-15T00:20:41.930Z,4.97
2022-09-15T00:23:09.455Z,5.20
2022-09-15T00:25:36.980Z,4.57
2022-09-15T00:28:04.544Z,5.65
2022-09-15T00:30:32.129Z,4.70
2022-09-15T00:32:59.603Z,5.18
2022-09-15T00:35:27.926Z,5.07
2022-09-15T00:37:55.451Z,5.20
2022-09-15T00:40:23.162Z,4.77
2022-09-15T00:42:50.619Z,5.43
2022-09-15T00:45:18.165Z,5.30
2022-09-15T00:47:45.699Z,5.03
2022-09-15T00:50:13.243Z,5.35
2022-09-15T00:52:50.180Z,4.27
2022-09-15T00:55:17.735Z,3.80
2022-09-15T00:58:02.983Z,3.10
2022-09-15T01:00:30.537Z,3.67
2022-09-15T01:02:58.072Z,3.10
2022-09-15T01:05:31.870Z,2.50
2022-09-15T01:08:00.203Z,3.10
2022-09-15T01:10:30.231Z,2.97
2022-09-15T01:12:57.763Z,2.60
2022-09-15T01:15:25.338Z,1.60
2022-09-15T01:18:04.885Z,1.37
2022-09-15T01:20:47.120Z,0.60
2022-09-15T01:23:33.514Z,0.73
2022-09-15T01:26:12.900Z,0.67
2022-09-15T01:28:46.091Z,0.40
2022-09-15T01:31:35.389Z,0.30
2022-09-15T01:34:08.675Z,0.10
2022-09-15T01:36:49.208Z,0.10
2022-09-15T01:39:19.410Z,0.10
2022-09-15T01:41:49.731Z,0.00
2022-09-15T01:44:23.695Z,0.40
2022-09-15T01:46:51.250Z,0.17
2022-09-15T01:49:18.774Z,0.20
2022-09-15T01:51:46.340Z,0.00
2022-09-15T01:54:13.874Z,0.10
2022-09-15T01:56:42.176Z,0.23
2022-09-15T01:59:09.732Z,0.10
2022-09-15T02:01:42.802Z,0.20
2022-09-15T02:04:10.274Z,0.13
2022-09-15T02:06:43.619Z,0.30
2022-09-15T02:09:11.154Z,0.10
2022-09-15T02:11:38.678Z,0.20
2022-09-15T02:14:15.126Z,0.20
2022-09-15T02:16:42.698Z,0.30
2022-09-15T02:19:41.086Z,0.30
2022-09-15T02:22:15.351Z,0.60
2022-09-15T02:24:42.885Z,0.80
2022-09-15T02:27:10.461Z,1.02
2022-09-15T02:29:37.985Z,0.73
2022-09-15T02:32:07.404Z,0.90
2022-09-15T02:34:33.852Z,1.07
2022-09-15T02:37:01.376Z,1.17
2022-09-15T02:39:28.901Z,1.63
2022-09-15T02:41:56.632Z,2.57
2022-09-15T02:44:24.130Z,2.40
2022-09-15T02:46:52.440Z,3.30
2022-09-15T02:49:20.015Z,3.30
2022-09-15T02:51:47.596Z,3.70
2022-09-15T02:54:15.126Z,3.73
2022-09-15T02:56:42.699Z,4.90
2022-09-15T02:59:10.283Z,4.27
2022-09-15T03:01:37.864Z,4.60
2022-09-15T03:04:05.364Z,5.20
2022-09-15T03:06:32.911Z,4.67
2022-09-15T03:09:00.452Z,4.73
2022-09-15T03:11:28.007Z,5.10
2022-09-15T03:13:56.309Z,4.37
2022-09-15T03:16:23.875Z,5.50
2022-09-15T03:18:52.167Z,5.60
2022-09-15T03:21:19.702Z,4.50
2022-09-15T03:23:47.247Z,4.93
2022-09-15T03:26:15.140Z,4.90
2022-09-15T03:28:42.661Z,4.83
2022-09-15T03:31:11.019Z,5.53
2022-09-15T03:33:38.516Z,5.33
2022-09-15T03:36:06.091Z,5.80
2022-09-15T03:38:33.625Z,6.20
2022-09-15T03:41:06.901Z,6.70
2022-09-15T03:43:35.194Z,6.23
2022-09-15T03:46:02.754Z,6.83
2022-09-15T03:48:30.286Z,7.07
2022-09-15T03:50:58.579Z,8.27
2022-09-15T03:53:26.891Z,8.47
2022-09-15T03:55:54.465Z,9.83
2022-09-15T03:58:22.030Z,10.37
2022-09-15T04:00:49.599Z,10.63
2022-09-15T04:03:17.160Z,10.40
2022-09-15T04:05:44.685Z,11.77
2022-09-15T04:08:12.229Z,12.47
2022-09-15T04:10:39.813Z,12.27
2022-09-15T04:13:07.339Z,12.83
2022-09-15T04:15:34.902Z,12.57
2022-09-15T04:18:02.466Z,13.53
2022-09-15T04:20:30.001Z,14.60
2022-09-15T04:22:58.305Z,14.60
2022-09-15T04:25:25.898Z,14.37
2022-09-15T04:27:53.443Z,15.23
2022-09-15T04:30:20.980Z,15.27
2022-09-15T04:32:50.629Z,15.63
2022-09-15T04:35:18.164Z,16.27
2022-09-15T04:37:45.729Z,19.98
2022-09-15T04:40:13.348Z,16.93
2022-09-15T04:42:40.871Z,16.00
2022-09-15T04:45:08.436Z,20.30
2022-09-15T04:47:36.020Z,17.40
2022-09-15T04:50:04.307Z,18.10
2022-09-15T04:52:31.851Z,18.17
2022-09-15T04:55:01.106Z,17.50
2022-09-15T04:57:28.661Z,17.83
2022-09-15T04:59:56.216Z,19.37
2022-09-15T05:02:23.852Z,17.70
2022-09-15T05:04:51.323Z,17.77
2022-09-15T05:07:18.878Z,17.47
2022-09-15T05:09:47.046Z,17.50
2022-09-15T05:12:15.151Z,16.73
2022-09-15T05:14:43.109Z,17.73
2022-09-15T05:17:10.704Z,19.03
2022-09-15T05:19:38.249Z,18.23
2022-09-15T05:22:05.783Z,19.30
2022-09-15T05:24:33.376Z,18.30
2022-09-15T05:27:00.990Z,19.37
2022-09-15T05:29:28.524Z,23.02
2022-09-15T05:31:56.173Z,19.67
2022-09-15T05:34:23.643Z,19.27
2022-09-15T05:36:51.207Z,20.37
2022-09-15T05:39:18.802Z,20.07
2022-09-15T05:41:46.337Z,19.80
2022-09-15T05:44:13.892Z,19.83
2022-09-15T05:46:41.525Z,19.90
2022-09-15T05:49:09.020Z,19.53
2022-09-15T05:51:36.557Z,19.10
2022-09-15T05:54:04.129Z,19.73
2022-09-15T05:56:31.655Z,20.63
2022-09-15T05:58:59.188Z,19.73
2022-09-15T06:01:26.835Z,19.60
2022-09-15T06:03:54.300Z,18.77
2022-09-15T06:06:21.855Z,19.53
2022-09-15T06:08:51.879Z,20.33
2022-09-15T06:11:16.980Z,20.27
2022-09-15T06:13:44.515Z,20.27
2022-09-15T06:16:12.181Z,20.03
2022-09-15T06:18:39.626Z,18.97
2022-09-15T06:21:13.272Z,20.27
2022-09-15T06:23:40.917Z,21.30
2022-09-15T06:26:08.487Z,25.83
2022-09-15T06:28:36.586Z,20.67
2022-09-15T06:31:04.961Z,25.70
2022-09-15T06:33:32.499Z,22.07
2022-09-15T06:36:00.043Z,20.73
2022-09-15T06:38:27.626Z,20.97
2022-09-15T06:40:55.187Z,20.47
2022-09-15T06:43:22.721Z,20.20
2022-09-15T06:45:50.335Z,24.65
2022-09-15T06:48:24.358Z,21.77
2022-09-15T06:50:45.378Z,21.93
2022-09-15T06:53:12.984Z,21.70
2022-09-15T06:55:40.527Z,21.60
2022-09-15T06:58:08.076Z,24.67
2022-09-15T07:00:35.678Z,21.20
2022-09-15T07:03:04.149Z,21.03
2022-09-15T07:05:31.533Z,20.80
2022-09-15T07:07:59.414Z,21.40
2022-09-15T07:10:26.947Z,21.00
2022-09-15T07:12:54.491Z,20.70
2022-09-15T07:15:22.849Z,25.33
2022-09-15T07:17:50.393Z,22.30
2022-09-15T07:20:17.931Z,24.85
2022-09-15T07:22:45.530Z,23.08
2022-09-15T07:25:13.067Z,21.23
2022-09-15T07:27:40.599Z,23.05
2022-09-15T07:30:08.245Z,19.93
2022-09-15T07:32:35.783Z,18.80
2022-09-15T07:35:04.095Z,19.37
2022-09-15T07:37:31.699Z,18.73
2022-09-15T07:39:59.510Z,19.07
2022-09-15T07:42:26.988Z,18.50
2022-09-15T07:44:54.591Z,18.73
2022-09-15T07:47:22.156Z,18.97
2022-09-15T07:49:49.707Z,18.93
2022-09-15T07:52:17.310Z,22.90
2022-09-15T07:54:44.846Z,21.50
2022-09-15T07:57:13.178Z,19.90
2022-09-15T07:59:41.404Z,18.43
2022-09-15T08:02:09.139Z,18.60
2022-09-15T08:04:36.711Z,18.43
2022-09-15T08:07:06.057Z,16.77
2022-09-15T08:09:33.740Z,16.20
2022-09-15T08:12:01.269Z,17.53
2022-09-15T08:14:28.859Z,17.87
2022-09-15T08:16:56.388Z,17.70
2022-09-15T08:19:23.922Z,17.13
2022-09-15T08:21:52.529Z,18.07
2022-09-15T08:24:20.064Z,18.87
2022-09-15T08:26:48.367Z,17.30
2022-09-15T08:29:17.194Z,15.20
2022-09-15T08:31:44.776Z,13.10
2022-09-15T08:34:12.241Z,14.57
2022-09-15T08:36:40.593Z,14.13
2022-09-15T08:39:08.137Z,13.77
2022-09-15T08:41:44.656Z,16.83
2022-09-15T08:44:31.538Z,15.27
2022-09-15T08:47:04.560Z,13.50
2022-09-15T08:49:50.412Z,12.10
2022-09-15T08:52:01.634Z,11.87
2022-09-15T08:54:29.190Z,11.93
2022-09-15T08:56:57.517Z,9.80
2022-09-15T08:59:25.099Z,9.17
2022-09-15T09:01:59.354Z,9.20
2022-09-15T09:04:47.841Z,8.60
2022-09-15T09:07:33.806Z,7.87
2022-09-15T09:10:19.857Z,7.63
2022-09-15T09:13:15.144Z,7.20
2022-09-15T09:15:57.293Z,7.13
2022-09-15T09:18:45.696Z,7.93
2022-09-15T09:21:13.280Z,7.43
2022-09-15T09:23:53.443Z,7.33
2022-09-15T09:26:20.963Z,7.33
2022-09-15T09:28:48.518Z,7.60
2022-09-15T09:31:16.087Z,7.40
2022-09-15T09:33:52.170Z,7.00
2022-09-15T09:36:20.472Z,6.28
2022-09-15T09:38:48.008Z,6.00
2022-09-15T09:41:19.313Z,5.33
2022-09-15T09:43:46.865Z,5.70
2022-09-15T09:46:14.459Z,5.50
2022-09-15T09:48:41.988Z,4.07
2022-09-15T09:51:31.109Z,4.40
2022-09-15T09:53:58.756Z,4.57
2022-09-15T09:56:26.263Z,4.67
2022-09-15T09:58:53.882Z,5.18
2022-09-15T10:01:21.454Z,5.23
2022-09-15T10:03:48.921Z,4.67
2022-09-15T10:06:16.445Z,4.83
2022-09-15T10:08:59.911Z,4.87
2022-09-15T10:11:42.738Z,4.37
2022-09-15T10:14:28.388Z,4.00
2022-09-15T10:17:11.085Z,4.43
2022-09-15T10:19:48.535Z,4.53
2022-09-15T10:22:31.027Z,3.60
2022-09-15T10:24:58.610Z,3.63
2022-09-15T10:27:26.146Z,3.03
2022-09-15T10:29:53.669Z,3.23
2022-09-15T10:32:25.622Z,3.10
2022-09-15T10:35:03.857Z,3.20
2022-09-15T10:37:34.698Z,2.77
2022-09-15T10:40:02.388Z,3.40
2022-09-15T10:42:36.287Z,3.40
2022-09-15T10:45:13.167Z,2.70
2022-09-15T10:47:46.413Z,3.83
2022-09-15T10:50:23.802Z,3.43
2022-09-15T10:52:58.013Z,4.00
2022-09-15T10:55:53.692Z,3.47
2022-09-15T10:58:26.789Z,2.80
2022-09-15T11:01:22.111Z,2.73
2022-09-15T11:03:59.226Z,2.90
2022-09-15T11:06:42.361Z,3.00
2022-09-15T11:09:25.029Z,2.80
2022-09-15T11:12:13.763Z,2.70
2022-09-15T11:14:59.577Z,2.92
2022-09-15T11:17:48.320Z,2.73
2022-09-15T11:20:27.819Z,2.57
2022-09-15T11:23:10.381Z,2.43
2022-09-15T11:25:37.903Z,2.50
2022-09-15T11:28:11.088Z,2.30
2022-09-15T11:30:38.663Z,2.13
2022-09-15T11:33:18.201Z,2.20
2022-09-15T11:36:03.794Z,2.30
2022-09-15T11:38:34.308Z,2.03
2022-09-15T11:41:22.932Z,2.40
2022-09-15T11:44:16.772Z,2.10
2022-09-15T11:46:47.828Z,1.87
2022-09-15T11:49:18.117Z,1.87
2022-09-15T11:51:45.652Z,1.98
2022-09-15T11:54:21.871Z,2.20
2022-09-15T11:56:50.173Z,2.00
2022-09-15T11:59:30.005Z,1.60
2022-09-15T12:01:57.624Z,1.65
2022-09-15T12:04:25.063Z,1.90
2022-09-15T12:06:55.410Z,1.90
2022-09-15T12:09:22.894Z,2.00
2022-09-15T12:11:51.197Z,1.93
2022-09-15T12:14:27.575Z,2.03
2022-09-15T12:16:55.111Z,2.10
2022-09-15T12:19:22.646Z,2.23
2022-09-15T12:21:51.254Z,1.90
2022-09-15T12:24:34.662Z,1.97
2022-09-15T12:27:03.038Z,2.00
2022-09-15T12:29:39.501Z,1.80
2022-09-15T12:32:25.509Z,1.60
2022-09-15T12:34:59.779Z,2.22
2022-09-15T12:37:30.140Z,1.80
2022-09-15T12:39:58.490Z,1.90
2022-09-15T12:42:28.659Z,2.20
2022-09-15T12:44:59.226Z,2.17
2022-09-15T12:47:36.012Z,2.10
2022-09-15T12:50:28.520Z,1.97
2022-09-15T12:53:01.723Z,2.30
2022-09-15T12:55:29.287Z,2.03
2022-09-15T12:57:56.847Z,1.90
2022-09-15T13:00:30.161Z,2.20
2022-09-15T13:02:57.828Z,1.83
2022-09-15T13:05:43.558Z,2.42
2022-09-15T13:08:11.850Z,1.93
2022-09-15T13:10:39.403Z,2.33
2022-09-15T13:13:16.017Z,2.47
2022-09-15T13:15:43.595Z,2.00
2022-09-15T13:18:11.945Z,2.20
2022-09-15T13:20:39.395Z,2.73
2022-09-15T13:23:06.930Z,2.47
2022-09-15T13:25:34.474Z,2.30
2022-09-15T13:28:02.427Z,2.30
2022-09-15T13:30:54.248Z,2.60
2022-09-15T13:36:19.674Z,2.87
2022-09-15T13:39:05.887Z,2.50
2022-09-15T13:41:55.959Z,2.50
2022-09-15T13:44:29.333Z,2.57
2022-09-15T13:47:05.601Z,2.60
2022-09-15T13:49:39.212Z,2.40
2022-09-15T13:52:19.117Z,2.07
2022-09-15T13:55:08.792Z,2.70
2022-09-15T14:00:03.869Z,2.70
2022-09-15T14:02:32.291Z,2.50
2022-09-15T14:04:59.755Z,2.03
2022-09-15T14:07:27.295Z,2.45
2022-09-15T14:09:55.167Z,2.50
2022-09-15T14:12:22.702Z,2.00
2022-09-15T14:14:50.986Z,2.20
2022-09-15T14:17:24.338Z,2.33
2022-09-15T14:19:52.021Z,2.20
2022-09-15T14:22:32.269Z,2.13
2022-09-15T14:24:59.803Z,2.27
2022-09-15T14:27:30.104Z,2.33
2022-09-15T14:29:57.704Z,2.50
2022-09-15T14:32:25.222Z,2.20
2022-09-15T14:34:52.748Z,2.13
2022-09-15T14:37:24.097Z,2.00
2022-09-15T14:39:51.582Z,2.30
2022-09-15T14:42:22.372Z,2.30
2022-09-15T14:47:20.478Z,2.20
2022-09-15T14:49:48.771Z,2.47
2022-09-15T14:52:25.371Z,2.13
2022-09-15T14:54:52.906Z,2.20
2022-09-15T14:57:20.526Z,2.10
2022-09-15T14:59:48.952Z,2.27
2022-09-15T15:02:25.054Z,2.10
2022-09-15T15:04:55.126Z,2.70
2022-09-15T15:07:25.350Z,2.20
2022-09-15T15:09:58.423Z,2.50
2022-09-15T15:12:29.447Z,2.50
2022-09-15T15:14:57.743Z,2.77
2022-09-15T15:17:25.254Z,2.40
2022-09-15T15:19:52.824Z,2.23
2022-09-15T15:22:20.374Z,2.03
2022-09-15T15:24:50.598Z,2.73
2022-09-15T15:27:23.965Z,2.57
2022-09-15T15:29:53.679Z,2.40
2022-09-15T15:32:21.201Z,2.30
2022-09-15T15:34:51.789Z,2.73
2022-09-15T15:37:25.384Z,2.77
2022-09-15T15:39:52.967Z,2.90
2022-09-15T15:42:20.980Z,3.17
2022-09-15T15:45:10.050Z,3.08
2022-09-15T15:47:37.642Z,2.73
2022-09-15T15:50:13.692Z,2.50
2022-09-15T15:52:39.046Z,2.75
2022-09-15T15:55:06.756Z,2.77
2022-09-15T15:57:37.255Z,2.80
2022-09-15T16:00:04.878Z,2.47
2022-09-15T16:02:32.463Z,2.60
2022-09-15T16:05:00.009Z,3.08
2022-09-15T16:07:32.632Z,3.20
2022-09-15T16:09:55.904Z,3.00
2022-09-15T16:12:23.418Z,2.60
2022-09-15T16:14:50.953Z,3.58
2022-09-15T16:17:19.569Z,3.03
2022-09-15T16:19:47.095Z,3.40
2022-09-15T16:22:18.119Z,3.00
2022-09-15T16:24:46.859Z,3.17
2022-09-15T16:27:17.308Z,3.23
2022-09-15T16:29:44.847Z,3.23
2022-09-15T16:32:21.430Z,3.00
2022-09-15T16:34:51.657Z,2.77
2022-09-15T16:37:19.182Z,3.47
2022-09-15T16:39:46.777Z,3.27
2022-09-15T16:42:14.265Z,3.07
2022-09-15T16:44:41.791Z,3.03
2022-09-15T16:47:09.414Z,2.73
2022-09-15T16:49:36.949Z,3.33
2022-09-15T16:52:05.241Z,3.10
2022-09-15T16:54:33.564Z,3.23
2022-09-15T16:57:01.122Z,3.10
2022-09-15T16:59:28.643Z,4.17
2022-09-15T17:01:56.276Z,4.50
2022-09-15T17:04:24.220Z,4.57
2022-09-15T17:06:51.760Z,4.20
2022-09-15T17:09:20.298Z,5.00
2022-09-15T17:11:48.582Z,3.70
2022-09-15T17:14:16.884Z,4.03
2022-09-15T17:16:44.464Z,3.80
2022-09-15T17:19:11.998Z,4.23
2022-09-15T17:21:39.525Z,4.03
2022-09-15T17:24:07.877Z,3.80
2022-09-15T17:26:35.405Z,5.00
2022-09-15T17:29:02.938Z,4.93
2022-09-15T17:31:30.561Z,4.97
2022-09-15T17:33:58.067Z,4.50
2022-09-15T17:36:25.596Z,4.60
2022-09-15T17:38:54.732Z,4.30
2022-09-15T17:41:24.999Z,4.57
2022-09-15T17:43:52.594Z,5.20
2022-09-15T17:46:20.679Z,4.53
2022-09-15T17:48:48.154Z,4.80
2022-09-15T17:51:15.747Z,4.27
2022-09-15T17:53:43.438Z,4.27
2022-09-15T17:56:11.244Z,4.37
2022-09-15T17:58:38.780Z,3.73
2022-09-15T18:01:07.002Z,3.90
2022-09-15T18:03:34.574Z,3.53
2022-09-15T18:06:02.059Z,3.90
2022-09-15T18:08:29.647Z,3.90
2022-09-15T18:10:57.266Z,3.37
2022-09-15T18:13:25.717Z,3.10
2022-09-15T18:15:53.471Z,3.07
2022-09-15T18:18:20.956Z,3.45
2022-09-15T18:20:49.256Z,3.10
2022-09-15T18:23:16.820Z,2.93
2022-09-15T18:25:44.352Z,2.50
2022-09-15T18:28:12.656Z,2.27
2022-09-15T18:30:43.235Z,2.43
2022-09-15T18:33:16.522Z,2.60
2022-09-15T18:35:44.066Z,2.53
2022-09-15T18:38:12.229Z,2.50
2022-09-15T18:40:39.733Z,2.50
2022-09-15T18:43:07.272Z,2.53
2022-09-15T18:45:34.867Z,2.50
2022-09-15T18:48:03.264Z,2.60
2022-09-15T18:50:30.880Z,2.50
2022-09-15T18:52:58.456Z,2.40
2022-09-15T18:55:26.756Z,2.00
2022-09-15T18:57:56.828Z,1.80
2022-09-15T19:00:21.964Z,1.77
2022-09-15T19:02:50.257Z,1.90
2022-09-15T19:05:17.792Z,2.00
2022-09-15T19:07:46.138Z,2.13
2022-09-15T19:10:14.195Z,1.80
2022-09-15T19:12:42.063Z,2.07
2022-09-15T19:15:11.312Z,2.23
2022-09-15T19:17:37.289Z,2.93
2022-09-15T19:20:04.863Z,3.20
2022-09-15T19:22:32.393Z,2.90
2022-09-15T19:24:59.915Z,2.43
2022-09-15T19:27:28.217Z,2.90
2022-09-15T19:29:55.799Z,2.67
2022-09-15T19:32:23.347Z,2.70
2022-09-15T19:34:50.897Z,2.78
2022-09-15T19:37:19.024Z,2.67
2022-09-15T19:39:46.049Z,2.70
2022-09-15T19:44:41.148Z,2.37
2022-09-15T19:47:08.682Z,2.77
2022-09-15T19:49:36.226Z,2.67
2022-09-15T19:52:03.796Z,3.00
2022-09-15T19:54:31.320Z,2.10
2022-09-15T19:56:59.633Z,2.30
2022-09-15T19:59:31.045Z,2.33
2022-09-15T20:01:55.063Z,2.20
2022-09-15T20:04:23.395Z,2.40
2022-09-15T20:06:51.403Z,2.40
2022-09-15T20:09:18.948Z,2.33
2022-09-15T20:11:47.253Z,2.60
2022-09-15T20:14:14.836Z,2.87
2022-09-15T20:16:42.437Z,2.53
2022-09-15T20:19:09.917Z,2.30
2022-09-15T20:21:52.769Z,2.20
2022-09-15T20:24:05.035Z,2.43
2022-09-15T20:26:32.579Z,2.63
2022-09-15T20:29:00.912Z,2.60
2022-09-15T20:31:28.446Z,2.63
2022-09-15T20:33:55.980Z,2.92
2022-09-15T20:36:23.569Z,2.70
2022-09-15T20:38:51.117Z,2.73
2022-09-15T20:41:18.649Z,2.80
2022-09-15T20:43:46.238Z,2.90
2022-09-15T20:46:13.805Z,2.90
2022-09-15T20:48:42.087Z,2.80
2022-09-15T20:51:15.442Z,2.83
2022-09-15T20:53:43.750Z,2.53
2022-09-15T20:56:11.296Z,2.90
2022-09-15T20:58:38.908Z,3.10
2022-09-15T21:01:06.493Z,2.70
2022-09-15T21:03:33.969Z,3.10
2022-09-15T21:06:04.092Z,3.17
2022-09-15T21:08:31.639Z,3.30
2022-09-15T21:10:59.192Z,2.83
2022-09-15T21:13:30.508Z,2.70
2022-09-15T21:16:00.794Z,3.03
2022-09-15T21:18:30.857Z,3.10
2022-09-15T21:20:58.438Z,2.47
2022-09-15T21:23:25.973Z,3.30
2022-09-15T21:26:02.324Z,3.17
2022-09-15T21:28:29.667Z,3.30
2022-09-15T21:31:03.102Z,2.97
2022-09-15T21:33:31.415Z,3.27
2022-09-15T21:36:10.883Z,2.77
2022-09-15T21:38:38.408Z,3.37
2022-09-15T21:41:05.951Z,3.30
2022-09-15T21:43:33.551Z,3.73
2022-09-15T21:46:01.231Z,2.90
2022-09-15T21:48:28.619Z,2.83
2022-09-15T21:50:57.030Z,3.17
2022-09-15T21:53:24.566Z,3.13
2022-09-15T21:55:52.123Z,3.43
2022-09-15T21:58:20.452Z,2.63
2022-09-15T22:00:48.027Z,2.87
2022-09-15T22:03:15.526Z,2.80
2022-09-15T22:05:44.124Z,3.23
2022-09-15T22:08:11.678Z,3.43
2022-09-15T22:10:39.213Z,3.13
2022-09-15T22:13:07.106Z,2.60
2022-09-15T22:15:34.527Z,3.67
2022-09-15T22:18:02.838Z,3.30
2022-09-15T22:20:30.431Z,3.93
2022-09-15T22:22:57.986Z,3.50
2022-09-15T22:25:25.557Z,3.97
2022-09-15T22:27:53.139Z,3.83
2022-09-15T22:30:21.442Z,3.63
2022-09-15T22:32:48.981Z,3.37
2022-09-15T22:35:17.329Z,3.60
2022-09-15T22:37:44.862Z,3.40
2022-09-15T22:40:12.434Z,3.70
2022-09-15T22:42:40.010Z,2.90
2022-09-15T22:45:07.747Z,3.17
2022-09-15T22:47:35.263Z,3.23
2022-09-15T22:50:02.837Z,3.13
2022-09-15T22:52:30.362Z,3.10
2022-09-15T22:54:58.669Z,3.17
2022-09-15T22:57:26.221Z,2.83
2022-09-15T22:59:53.775Z,2.80
2022-09-15T23:02:22.179Z,3.57
2022-09-15T23:04:49.675Z,3.50
2022-09-15T23:07:17.252Z,3.53
2022-09-15T23:09:44.742Z,3.40
2022-09-15T23:12:12.307Z,3.53
2022-09-15T23:14:39.853Z,3.90
2022-09-15T23:17:07.389Z,4.10
2022-09-15T23:19:36.016Z,3.10
2022-09-15T23:22:03.560Z,3.20
2022-09-15T23:24:31.205Z,3.73
2022-09-15T23:26:59.528Z,3.50
2022-09-15T23:29:27.093Z,3.50
2022-09-15T23:31:54.670Z,3.43
2022-09-15T23:34:22.200Z,3.53
2022-09-15T23:36:49.746Z,3.57
2022-09-15T23:39:17.260Z,3.20
2022-09-15T23:41:45.613Z,3.50
2022-09-15T23:44:13.167Z,3.17
2022-09-15T23:46:40.757Z,3.37
2022-09-15T23:49:08.571Z,3.70
2022-09-15T23:51:36.106Z,3.10
2022-09-15T23:54:03.660Z,2.70
2022-09-15T23:56:32.948Z,2.80
2022-09-15T23:59:01.291Z,2.20
